createdAt,value
2023-03-13T00:01:44.877Z,6.03
2023-03-13T00:04:11.490Z,5.81
2023-03-13T00:06:39.509Z,5.80
2023-03-13T00:09:09.343Z,5.76
2023-03-13T00:11:36.103Z,6.14
2023-03-13T00:14:04.874Z,5.89
2023-03-13T00:16:32.070Z,5.73
2023-03-13T00:18:59.139Z,5.78
2023-03-13T00:21:28.116Z,5.89
2023-03-13T00:23:55.245Z,5.45
2023-03-13T00:26:25.743Z,5.61
2023-03-13T00:28:53.222Z,5.77
2023-03-13T00:31:21.091Z,5.59
2023-03-13T00:33:52.107Z,5.51
2023-03-13T00:36:25.044Z,5.45
2023-03-13T00:38:53.114Z,5.50
2023-03-13T00:41:25.388Z,5.42
2023-03-13T00:43:53.029Z,5.61
2023-03-13T00:46:21.988Z,5.37
2023-03-13T00:48:49.075Z,5.45
2023-03-13T00:51:18.298Z,5.21
2023-03-13T00:53:45.504Z,5.44
2023-03-13T00:56:14.817Z,5.63
2023-03-13T00:58:43.421Z,5.37
2023-03-13T01:01:20.973Z,5.78
2023-03-13T01:03:51.332Z,6.10
2023-03-13T01:06:21.312Z,5.69
2023-03-13T01:08:49.016Z,5.59
2023-03-13T01:11:38.247Z,5.73
2023-03-13T01:14:10.150Z,5.76
2023-03-13T01:16:38.931Z,5.38
2023-03-13T01:19:11.894Z,5.60
2023-03-13T01:21:39.973Z,5.28
2023-03-13T01:24:06.876Z,5.35
2023-03-13T01:26:33.622Z,5.04
2023-03-13T01:29:00.232Z,5.40
2023-03-13T01:31:32.439Z,5.07
2023-03-13T01:34:02.167Z,5.12
2023-03-13T01:36:29.273Z,4.88
2023-03-13T01:38:58.549Z,5.13
2023-03-13T01:41:27.394Z,4.85
2023-03-13T01:43:55.585Z,4.67
2023-03-13T01:46:27.773Z,4.56
2023-03-13T01:49:17.304Z,4.30
2023-03-13T01:51:50.894Z,4.48
2023-03-13T01:54:29.536Z,4.32
2023-03-13T01:57:05.810Z,4.50
2023-03-13T01:59:44.390Z,4.31
2023-03-13T02:02:12.166Z,4.26
2023-03-13T02:04:45.370Z,4.45
2023-03-13T02:07:19.104Z,4.53
2023-03-13T02:09:52.584Z,4.78
2023-03-13T02:12:32.349Z,4.66
2023-03-13T02:15:03.188Z,5.06
2023-03-13T02:17:30.223Z,5.32
2023-03-13T02:19:56.873Z,5.59
2023-03-13T02:22:42.448Z,5.68
2023-03-13T02:25:24.314Z,5.85
2023-03-13T02:28:13.285Z,5.75
2023-03-13T02:30:43.227Z,6.21
2023-03-13T02:33:12.138Z,6.48
2023-03-13T02:35:39.488Z,6.36
2023-03-13T02:38:10.445Z,6.93
2023-03-13T02:40:44.387Z,6.68
2023-03-13T02:43:24.123Z,7.14
2023-03-13T02:46:29.453Z,7.41
2023-03-13T02:48:57.323Z,7.17
2023-03-13T02:51:35.422Z,7.72
2023-03-13T02:54:11.708Z,8.38
2023-03-13T02:56:43.724Z,8.56
2023-03-13T02:59:10.471Z,9.04
2023-03-13T03:01:37.083Z,9.32
2023-03-13T03:04:03.790Z,9.52
2023-03-13T03:06:30.382Z,9.74
2023-03-13T03:08:56.984Z,9.78
2023-03-13T03:11:23.574Z,10.33
2023-03-13T03:13:50.204Z,10.13
2023-03-13T03:16:20.505Z,9.96
2023-03-13T03:18:47.811Z,10.51
2023-03-13T03:21:14.377Z,10.82
2023-03-13T03:23:40.977Z,10.86
2023-03-13T03:26:07.817Z,11.56
2023-03-13T03:28:34.975Z,11.30
2023-03-13T03:31:10.189Z,12.01
2023-03-13T03:33:38.320Z,11.85
2023-03-13T03:36:09.031Z,11.69
2023-03-13T03:38:36.418Z,11.48
2023-03-13T03:41:03.097Z,11.26
2023-03-13T03:43:29.690Z,11.26
2023-03-13T03:45:56.320Z,11.12
2023-03-13T03:48:22.932Z,10.46
2023-03-13T03:50:49.642Z,10.66
2023-03-13T03:53:16.907Z,10.20
2023-03-13T03:55:44.436Z,9.53
2023-03-13T03:58:11.125Z,9.80
2023-03-13T04:00:37.782Z,9.13
2023-03-13T04:03:04.989Z,8.76
2023-03-13T04:05:31.598Z,8.24
2023-03-13T04:07:58.168Z,8.07
2023-03-13T04:10:24.748Z,7.68
2023-03-13T04:12:51.338Z,7.68
2023-03-13T04:15:17.919Z,7.56
2023-03-13T04:17:44.472Z,7.36
2023-03-13T04:20:13.555Z,7.59
2023-03-13T04:22:40.749Z,7.20
2023-03-13T04:25:08.055Z,7.10
2023-03-13T04:27:35.405Z,7.21
2023-03-13T04:30:02.078Z,7.47
2023-03-13T04:32:28.687Z,7.62
2023-03-13T04:34:55.345Z,7.12
2023-03-13T04:37:22.030Z,7.43
2023-03-13T04:39:48.811Z,7.98
2023-03-13T04:42:15.367Z,7.89
2023-03-13T04:44:43.637Z,7.25
2023-03-13T04:47:10.524Z,7.89
2023-03-13T04:49:37.156Z,7.91
2023-03-13T04:52:03.920Z,7.85
2023-03-13T04:54:30.562Z,7.47
2023-03-13T04:56:57.165Z,6.96
2023-03-13T04:59:23.756Z,6.82
2023-03-13T05:01:50.337Z,6.98
2023-03-13T05:04:17.073Z,6.63
2023-03-13T05:06:43.657Z,6.35
2023-03-13T05:09:10.429Z,5.98
2023-03-13T05:11:37.114Z,5.84
2023-03-13T05:14:04.448Z,5.92
2023-03-13T05:16:31.311Z,5.79
2023-03-13T05:18:57.848Z,5.61
2023-03-13T05:21:24.459Z,5.69
2023-03-13T05:23:51.094Z,5.42
2023-03-13T05:26:17.723Z,4.94
2023-03-13T05:28:44.385Z,4.98
2023-03-13T05:31:11.041Z,4.99
2023-03-13T05:33:37.677Z,4.89
2023-03-13T05:36:04.644Z,5.08
2023-03-13T05:38:31.410Z,4.80
2023-03-13T05:40:57.956Z,4.47
2023-03-13T05:43:24.572Z,4.42
2023-03-13T05:45:51.101Z,4.63
2023-03-13T05:48:17.682Z,4.62
2023-03-13T05:50:44.371Z,4.51
2023-03-13T05:53:11.003Z,4.68
2023-03-13T05:55:37.583Z,4.34
2023-03-13T05:58:04.466Z,4.12
2023-03-13T06:00:31.256Z,4.24
2023-03-13T06:02:57.839Z,4.37
2023-03-13T06:05:24.472Z,4.24
2023-03-13T06:07:51.140Z,4.27
2023-03-13T06:10:17.925Z,4.19
2023-03-13T06:12:44.590Z,4.17
2023-03-13T06:15:12.300Z,4.35
2023-03-13T06:17:39.115Z,4.28
2023-03-13T06:20:06.873Z,4.14
2023-03-13T06:22:33.434Z,4.47
2023-03-13T06:25:00.178Z,4.50
2023-03-13T06:27:26.768Z,4.60
2023-03-13T06:29:53.453Z,4.42
2023-03-13T06:32:20.086Z,4.20
2023-03-13T06:34:46.762Z,4.02
2023-03-13T06:37:13.318Z,4.23
2023-03-13T06:39:39.864Z,4.39
2023-03-13T06:42:06.903Z,4.08
2023-03-13T06:44:33.541Z,4.34
2023-03-13T06:47:00.171Z,4.41
2023-03-13T06:49:26.829Z,4.40
2023-03-13T06:51:58.261Z,4.46
2023-03-13T06:54:25.331Z,4.23
2023-03-13T06:56:51.885Z,4.21
2023-03-13T06:59:18.444Z,4.06
2023-03-13T07:01:45.993Z,4.18
2023-03-13T07:04:13.488Z,4.17
2023-03-13T07:06:40.174Z,3.97
2023-03-13T07:09:06.762Z,3.95
2023-03-13T07:11:33.378Z,3.93
2023-03-13T07:14:15.200Z,3.78
2023-03-13T07:16:43.837Z,4.11
2023-03-13T07:19:10.643Z,4.11
2023-03-13T07:21:37.381Z,3.96
2023-03-13T07:24:04.314Z,4.11
2023-03-13T07:26:31.064Z,4.12
2023-03-13T07:28:57.697Z,4.24
2023-03-13T07:31:24.677Z,4.01
2023-03-13T07:33:56.306Z,4.00
2023-03-13T07:36:23.844Z,4.01
2023-03-13T07:38:51.308Z,4.32
2023-03-13T07:41:19.542Z,4.15
2023-03-13T07:43:46.784Z,4.48
2023-03-13T07:46:18.653Z,4.45
2023-03-13T07:48:46.880Z,4.16
2023-03-13T07:51:17.553Z,4.17
2023-03-13T07:53:45.570Z,4.70
2023-03-13T07:56:15.024Z,4.51
2023-03-13T07:58:43.108Z,4.60
2023-03-13T08:01:18.586Z,4.59
2023-03-13T08:03:46.465Z,4.46
2023-03-13T08:06:16.605Z,4.46
2023-03-13T08:08:43.246Z,4.50
2023-03-13T08:11:21.858Z,3.91
2023-03-13T08:13:50.099Z,4.07
2023-03-13T08:16:20.251Z,4.01
2023-03-13T08:18:49.734Z,4.07
2023-03-13T08:21:25.202Z,4.05
2023-03-13T08:24:00.196Z,4.10
2023-03-13T08:26:30.957Z,4.43
2023-03-13T08:29:00.550Z,4.47
2023-03-13T08:31:30.847Z,4.12
2023-03-13T08:33:57.512Z,4.38
2023-03-13T08:36:26.034Z,4.37
2023-03-13T08:38:55.031Z,4.23
2023-03-13T08:41:24.770Z,4.12
2023-03-13T08:43:55.855Z,3.88
2023-03-13T08:46:22.805Z,3.70
2023-03-13T08:48:55.034Z,3.79
2023-03-13T08:51:24.228Z,3.77
2023-03-13T08:53:52.265Z,3.62
2023-03-13T08:56:21.517Z,3.52
2023-03-13T08:58:52.795Z,3.64
2023-03-13T09:01:20.514Z,3.63
2023-03-13T09:03:48.072Z,3.61
2023-03-13T09:06:15.024Z,3.66
2023-03-13T09:08:42.926Z,3.57
2023-03-13T09:11:13.009Z,3.18
2023-03-13T09:13:43.194Z,3.34
2023-03-13T09:16:12.684Z,3.36
2023-03-13T09:18:39.345Z,3.16
2023-03-13T09:21:08.776Z,3.13
2023-03-13T09:23:35.413Z,3.06
2023-03-13T09:26:02.250Z,2.71
2023-03-13T09:28:28.957Z,2.75
2023-03-13T09:30:55.912Z,2.83
2023-03-13T09:33:24.242Z,2.75
2023-03-13T09:35:51.350Z,2.45
2023-03-13T09:38:20.911Z,2.48
2023-03-13T09:41:05.322Z,2.35
2023-03-13T09:43:41.505Z,2.36
2023-03-13T09:46:37.352Z,2.13
2023-03-13T09:49:29.654Z,2.06
2023-03-13T09:52:05.107Z,2.22
2023-03-13T09:54:39.610Z,2.20
2023-03-13T09:57:32.575Z,2.11
2023-03-13T10:00:12.412Z,1.75
2023-03-13T10:02:40.321Z,2.05
2023-03-13T10:05:17.695Z,1.77
2023-03-13T10:07:44.699Z,1.71
2023-03-13T10:10:34.437Z,1.81
2023-03-13T10:13:20.131Z,1.68
2023-03-13T10:15:56.469Z,1.76
2023-03-13T10:18:24.750Z,1.65
2023-03-13T10:20:56.899Z,1.88
2023-03-13T10:23:43.400Z,1.70
2023-03-13T10:26:23.334Z,2.16
2023-03-13T10:28:51.777Z,1.55
2023-03-13T10:31:28.947Z,1.95
2023-03-13T10:34:07.711Z,2.63
2023-03-13T10:36:46.671Z,1.97
2023-03-13T10:39:28.298Z,1.98
2023-03-13T10:42:12.767Z,1.93
2023-03-13T10:44:39.386Z,1.80
2023-03-13T10:47:06.412Z,1.80
2023-03-13T10:49:33.875Z,1.91
2023-03-13T10:52:03.656Z,1.82
2023-03-13T10:54:39.669Z,1.81
2023-03-13T10:57:18.477Z,2.00
2023-03-13T10:59:48.673Z,1.98
2023-03-13T11:02:33.974Z,2.07
2023-03-13T11:05:03.410Z,1.96
2023-03-13T11:07:38.021Z,1.95
2023-03-13T11:10:21.924Z,1.92
2023-03-13T11:12:51.581Z,1.98
2023-03-13T11:15:24.208Z,1.91
2023-03-13T11:18:02.835Z,1.59
2023-03-13T11:20:36.401Z,1.72
2023-03-13T11:23:21.757Z,1.65
2023-03-13T11:26:10.415Z,1.67
2023-03-13T11:28:45.948Z,1.63
2023-03-13T11:31:27.750Z,1.62
2023-03-13T11:33:58.781Z,1.70
2023-03-13T11:36:25.749Z,1.51
2023-03-13T11:39:00.111Z,1.60
2023-03-13T11:41:52.269Z,1.42
2023-03-13T11:44:31.614Z,1.42
2023-03-13T11:47:04.320Z,1.56
2023-03-13T11:49:51.119Z,1.42
2023-03-13T11:52:23.485Z,1.51
2023-03-13T11:55:09.405Z,1.60
2023-03-13T11:58:20.051Z,1.63
2023-03-13T12:01:16.219Z,1.62
2023-03-13T12:04:12.118Z,1.46
2023-03-13T12:06:50.517Z,1.56
2023-03-13T12:09:42.509Z,1.50
2023-03-13T12:12:27.401Z,1.67
2023-03-13T12:15:02.968Z,1.67
2023-03-13T12:17:35.974Z,1.47
2023-03-13T12:20:18.583Z,1.32
2023-03-13T12:23:08.386Z,1.41
2023-03-13T12:25:49.313Z,1.50
2023-03-13T12:28:24.915Z,1.50
2023-03-13T12:31:13.538Z,1.56
2023-03-13T12:34:06.978Z,1.61
2023-03-13T12:36:43.243Z,1.54
2023-03-13T12:39:36.278Z,1.76
2023-03-13T12:42:21.179Z,1.66
2023-03-13T12:44:47.984Z,1.83
2023-03-13T12:47:31.571Z,1.69
2023-03-13T12:50:14.094Z,1.79
2023-03-13T12:53:03.519Z,1.91
2023-03-13T12:55:57.538Z,1.92
2023-03-13T12:59:04.779Z,2.02
2023-03-13T13:01:42.785Z,1.77
2023-03-13T13:04:20.616Z,2.06
2023-03-13T13:07:02.539Z,1.88
2023-03-13T13:09:36.326Z,1.96
2023-03-13T13:12:22.153Z,2.10
2023-03-13T13:14:48.692Z,1.94
2023-03-13T13:17:17.343Z,1.91
2023-03-13T13:19:47.569Z,2.07
2023-03-13T13:22:38.742Z,2.03
2023-03-13T13:25:26.678Z,2.21
2023-03-13T13:27:53.801Z,1.95
2023-03-13T13:30:20.318Z,1.99
2023-03-13T13:33:10.210Z,2.13
2023-03-13T13:35:37.446Z,2.22
2023-03-13T13:38:19.371Z,2.42
2023-03-13T13:41:10.337Z,2.21
2023-03-13T13:43:46.009Z,2.16
2023-03-13T13:46:29.263Z,2.22
2023-03-13T13:49:04.898Z,2.35
2023-03-13T13:51:33.025Z,2.41
2023-03-13T13:54:12.678Z,2.48
2023-03-13T13:56:46.899Z,2.55
2023-03-13T13:59:22.602Z,2.58
2023-03-13T14:02:10.365Z,2.66
2023-03-13T14:04:46.757Z,2.71
2023-03-13T14:07:45.066Z,2.33
2023-03-13T14:10:33.769Z,2.74
2023-03-13T14:13:02.169Z,2.88
2023-03-13T14:15:34.772Z,2.84
2023-03-13T14:18:13.319Z,2.50
2023-03-13T14:21:04.154Z,2.84
2023-03-13T14:23:42.603Z,2.85
2023-03-13T14:26:21.708Z,2.77
2023-03-13T14:28:58.093Z,2.52
2023-03-13T14:31:33.865Z,2.56
2023-03-13T14:34:07.386Z,2.75
2023-03-13T14:36:47.154Z,2.94
2023-03-13T14:39:36.372Z,2.67
2023-03-13T14:42:14.848Z,2.98
2023-03-13T14:44:44.094Z,2.78
2023-03-13T14:47:16.837Z,2.61
2023-03-13T14:49:47.188Z,2.76
2023-03-13T14:52:24.642Z,2.69
2023-03-13T14:55:25.975Z,3.15
2023-03-13T14:57:58.562Z,2.74
2023-03-13T15:00:45.213Z,2.86
2023-03-13T15:03:18.895Z,2.61
2023-03-13T15:06:10.029Z,2.86
2023-03-13T15:08:40.276Z,2.90
2023-03-13T15:11:29.275Z,2.72
2023-03-13T15:13:56.899Z,2.68
2023-03-13T15:16:25.152Z,2.53
2023-03-13T15:18:53.564Z,3.29
2023-03-13T15:21:32.929Z,3.15
2023-03-13T15:24:13.257Z,2.86
2023-03-13T15:26:39.890Z,2.47
2023-03-13T15:29:06.539Z,2.87
2023-03-13T15:31:33.202Z,2.71
2023-03-13T15:34:01.761Z,2.48
2023-03-13T15:36:31.538Z,2.84
2023-03-13T15:38:58.186Z,2.74
2023-03-13T15:41:25.079Z,3.16
2023-03-13T15:43:56.864Z,2.53
2023-03-13T15:46:25.972Z,2.74
2023-03-13T15:48:53.931Z,2.75
2023-03-13T15:51:21.006Z,2.50
2023-03-13T15:53:47.670Z,2.92
2023-03-13T15:56:20.427Z,2.89
2023-03-13T15:58:48.985Z,2.91
2023-03-13T16:01:17.864Z,2.56
2023-03-13T16:03:44.904Z,2.72
2023-03-13T16:06:16.581Z,2.77
2023-03-13T16:08:43.890Z,2.83
2023-03-13T16:11:14.552Z,2.81
2023-03-13T16:13:41.662Z,2.80
2023-03-13T16:16:24.273Z,2.70
2023-03-13T16:18:52.588Z,2.91
2023-03-13T16:21:23.795Z,2.77
2023-03-13T16:23:50.766Z,2.77
2023-03-13T16:26:20.915Z,2.70
2023-03-13T16:28:47.990Z,2.79
2023-03-13T16:31:21.003Z,2.93
2023-03-13T16:33:48.804Z,2.96
2023-03-13T16:36:18.234Z,2.94
2023-03-13T16:38:45.804Z,3.11
2023-03-13T16:41:14.468Z,2.96
2023-03-13T16:43:41.377Z,3.01
2023-03-13T16:46:17.527Z,3.07
2023-03-13T16:48:45.493Z,3.17
2023-03-13T16:51:21.320Z,2.95
2023-03-13T16:53:50.846Z,3.26
2023-03-13T16:56:31.617Z,3.26
2023-03-13T16:58:58.416Z,3.09
2023-03-13T17:01:26.125Z,3.60
2023-03-13T17:03:53.403Z,3.69
2023-03-13T17:06:25.477Z,3.82
2023-03-13T17:08:52.265Z,3.93
2023-03-13T17:11:21.224Z,3.98
2023-03-13T17:13:49.845Z,3.99
2023-03-13T17:16:32.862Z,3.66
2023-03-13T17:19:00.641Z,3.71
2023-03-13T17:21:31.868Z,4.03
2023-03-13T17:24:01.948Z,4.02
2023-03-13T17:26:33.325Z,4.08
2023-03-13T17:29:00.478Z,4.27
2023-03-13T17:31:28.724Z,4.43
2023-03-13T17:33:55.396Z,3.97
2023-03-13T17:36:28.075Z,4.33
2023-03-13T17:38:57.537Z,4.23
2023-03-13T17:41:27.316Z,4.42
2023-03-13T17:43:54.550Z,4.12
2023-03-13T17:46:23.800Z,4.14
2023-03-13T17:48:52.896Z,4.23
2023-03-13T17:51:28.429Z,4.34
2023-03-13T17:53:56.453Z,4.25
2023-03-13T17:56:28.644Z,4.47
2023-03-13T17:58:58.364Z,4.79
2023-03-13T18:01:28.952Z,4.59
2023-03-13T18:03:56.932Z,4.71
2023-03-13T18:06:47.688Z,4.34
2023-03-13T18:09:20.768Z,5.09
2023-03-13T18:11:49.143Z,5.26
2023-03-13T18:14:15.775Z,4.68
2023-03-13T18:16:48.296Z,5.34
2023-03-13T18:19:16.905Z,5.24
2023-03-13T18:21:45.048Z,5.55
2023-03-13T18:24:13.258Z,5.66
2023-03-13T18:26:42.059Z,7.28
2023-03-13T18:29:26.099Z,8.13
2023-03-13T18:31:55.155Z,6.65
2023-03-13T18:34:23.037Z,7.49
2023-03-13T18:36:49.656Z,6.58
2023-03-13T18:39:17.843Z,5.42
2023-03-13T18:41:45.474Z,6.00
2023-03-13T18:44:15.618Z,5.80
2023-03-13T18:46:43.620Z,7.27
2023-03-13T18:49:17.143Z,5.89
2023-03-13T18:51:44.672Z,6.32
2023-03-13T18:54:12.167Z,6.28
2023-03-13T18:56:39.096Z,7.09
2023-03-13T18:59:15.562Z,7.01
2023-03-13T19:01:42.827Z,6.73
2023-03-13T19:04:09.497Z,6.05
2023-03-13T19:06:37.024Z,6.10
2023-03-13T19:09:37.662Z,5.63
2023-03-13T19:11:58.626Z,5.44
2023-03-13T19:14:25.720Z,5.44
2023-03-13T19:16:56.065Z,5.27
2023-03-13T19:19:24.438Z,5.36
2023-03-13T19:21:53.034Z,4.95
2023-03-13T19:24:22.049Z,5.30
2023-03-13T19:26:51.969Z,5.37
2023-03-13T19:29:24.138Z,7.23
2023-03-13T19:31:51.277Z,6.13
2023-03-13T19:34:18.717Z,6.33
2023-03-13T19:36:47.936Z,6.74
2023-03-13T19:39:20.351Z,6.57
2023-03-13T19:41:50.059Z,5.97
2023-03-13T19:44:18.009Z,6.23
2023-03-13T19:46:45.516Z,7.01
2023-03-13T19:49:14.546Z,7.28
2023-03-13T19:51:41.939Z,6.77
2023-03-13T19:54:12.531Z,6.90
2023-03-13T19:56:48.028Z,6.09
2023-03-13T19:59:21.465Z,5.38
2023-03-13T20:01:48.457Z,5.53
2023-03-13T20:04:15.818Z,5.29
2023-03-13T20:06:43.263Z,5.34
2023-03-13T20:09:14.819Z,5.76
2023-03-13T20:11:41.675Z,5.46
2023-03-13T20:14:09.103Z,5.43
2023-03-13T20:16:36.776Z,5.59
2023-03-13T20:19:03.798Z,5.82
2023-03-13T20:21:33.295Z,5.44
2023-03-13T20:24:01.019Z,5.54
2023-03-13T20:26:29.193Z,5.47
2023-03-13T20:28:56.769Z,5.58
2023-03-13T20:31:26.960Z,5.26
2023-03-13T20:33:55.424Z,5.73
2023-03-13T20:36:22.837Z,5.78
2023-03-13T20:38:49.700Z,5.86
2023-03-13T20:41:16.603Z,6.26
2023-03-13T20:43:43.616Z,5.79
2023-03-13T20:46:10.968Z,5.66
2023-03-13T20:48:39.798Z,6.04
2023-03-13T20:51:08.251Z,5.42
2023-03-13T20:53:39.796Z,5.65
2023-03-13T20:56:07.942Z,5.76
2023-03-13T20:58:35.635Z,5.89
2023-03-13T21:01:03.774Z,6.06
2023-03-13T21:03:35.031Z,6.05
2023-03-13T21:06:12.646Z,6.71
2023-03-13T21:08:39.500Z,7.83
2023-03-13T21:11:13.774Z,7.77
2023-03-13T21:13:40.404Z,6.81
2023-03-13T21:16:07.483Z,6.73
2023-03-13T21:18:34.231Z,6.19
2023-03-13T21:21:14.877Z,6.15
2023-03-13T21:23:41.672Z,5.93
2023-03-13T21:26:08.776Z,5.75
2023-03-13T21:28:35.551Z,5.77
2023-03-13T21:31:14.551Z,5.77
2023-03-13T21:33:41.941Z,5.89
2023-03-13T21:36:10.062Z,5.43
2023-03-13T21:38:36.699Z,5.39
2023-03-13T21:41:29.620Z,6.11
2023-03-13T21:43:56.206Z,5.44
2023-03-13T21:46:23.633Z,5.49
2023-03-13T21:48:50.331Z,5.46
2023-03-13T21:51:17.002Z,5.17
2023-03-13T21:53:44.549Z,5.22
2023-03-13T21:56:15.275Z,5.30
2023-03-13T21:58:42.419Z,5.07
2023-03-13T22:01:09.078Z,5.29
2023-03-13T22:03:35.749Z,5.23
2023-03-13T22:06:02.369Z,5.45
2023-03-13T22:08:28.934Z,5.00
2023-03-13T22:10:55.754Z,4.94
2023-03-13T22:13:22.354Z,4.91
2023-03-13T22:15:50.446Z,4.77
2023-03-13T22:18:17.513Z,4.63
2023-03-13T22:20:44.496Z,4.72
2023-03-13T22:23:12.288Z,4.92
2023-03-13T22:25:40.967Z,4.78
2023-03-13T22:28:08.146Z,4.89
2023-03-13T22:30:35.619Z,5.12
2023-03-13T22:33:03.893Z,4.75
2023-03-13T22:35:30.582Z,5.00
2023-03-13T22:37:57.192Z,4.95
2023-03-13T22:40:23.772Z,4.91
2023-03-13T22:42:51.664Z,5.22
2023-03-13T22:45:19.262Z,5.28
2023-03-13T22:47:45.888Z,5.20
2023-03-13T22:50:13.488Z,5.07
2023-03-13T22:52:40.384Z,5.26
2023-03-13T22:55:07.297Z,5.11
2023-03-13T22:57:33.872Z,4.79
2023-03-13T23:00:00.547Z,4.72
2023-03-13T23:02:27.843Z,4.81
2023-03-13T23:04:58.522Z,4.86
2023-03-13T23:07:29.601Z,4.63
2023-03-13T23:09:57.704Z,4.72
2023-03-13T23:12:26.043Z,4.91
2023-03-13T23:14:52.911Z,5.22
2023-03-13T23:17:19.608Z,5.15
2023-03-13T23:19:46.195Z,5.29
2023-03-13T23:22:17.676Z,6.15
2023-03-13T23:24:44.598Z,5.53
2023-03-13T23:27:11.201Z,5.36
2023-03-13T23:29:37.806Z,5.50
2023-03-13T23:32:04.616Z,5.71
2023-03-13T23:34:31.277Z,5.59
2023-03-13T23:36:58.147Z,5.88
2023-03-13T23:39:24.834Z,5.77
2023-03-13T23:41:51.398Z,5.98
2023-03-13T23:44:17.988Z,6.27
2023-03-13T23:46:44.670Z,6.11
2023-03-13T23:49:12.778Z,6.03
2023-03-13T23:51:39.566Z,6.42
2023-03-13T23:54:06.669Z,6.65
2023-03-13T23:56:33.972Z,7.03
2023-03-13T23:59:00.619Z,7.32
